Time;durP1;ratioP1;P1;durP2;ratioP2;P2;SDS_P1;SDS_P2;PMS_P1;PMS_P2;Temp;Humidity;BMP_temperature;BMP_pressure;BME280_temperature;BME280_humidity;BME280_pressure;Samples;Min_cycle;Max_cycle;Signal;HPM_P1;HPM_P2
2022/01/29 00:00:10;;;;;;;8.6;5.9;;;;;;;;;;;;;
2022/01/29 00:02:35;;;;;;;8.9;5.2;;;;;;;;;;;;;
2022/01/29 00:05:01;;;;;;;8.5;5.1;;;;;;;;;;;;;
2022/01/29 00:07:30;;;;;;;8.9;5.6;;;;;;;;;;;;;
2022/01/29 00:10:05;;;;;;;9.3;5.6;;;;;;;;;;;;;
2022/01/29 00:12:33;;;;;;;9.4;6.3;;;;;;;;;;;;;
2022/01/29 00:15:02;;;;;;;9.9;6.2;;;;;;;;;;;;;
2022/01/29 00:17:30;;;;;;;10;6.5;;;;;;;;;;;;;
2022/01/29 00:20:05;;;;;;;10.4;6.8;;;;;;;;;;;;;
2022/01/29 00:22:38;;;;;;;9;6;;;;;;;;;;;;;
2022/01/29 00:25:05;;;;;;;8.4;5.6;;;;;;;;;;;;;
2022/01/29 00:27:34;;;;;;;8.9;5.2;;;;;;;;;;;;;
2022/01/29 00:29:56;;;;;;;8.1;5.3;;;;;;;;;;;;;
2022/01/29 00:32:21;;;;;;;8;5.2;;;;;;;;;;;;;
2022/01/29 00:34:59;;;;;;;7.6;5.3;;;;;;;;;;;;;
2022/01/29 00:37:31;;;;;;;9.7;5.8;;;;;;;;;;;;;
2022/01/29 00:39:56;;;;;;;7.8;5.3;;;;;;;;;;;;;
2022/01/29 00:42:23;;;;;;;8.6;5.4;;;;;;;;;;;;;
2022/01/29 00:44:49;;;;;;;7.9;5.2;;;;;;;;;;;;;
2022/01/29 00:47:14;;;;;;;7.5;4.7;;;;;;;;;;;;;
2022/01/29 00:49:45;;;;;;;6.9;4.5;;;;;;;;;;;;;
2022/01/29 00:52:10;;;;;;;6.9;4.2;;;;;;;;;;;;;
2022/01/29 00:54:35;;;;;;;8.5;5.1;;;;;;;;;;;;;
2022/01/29 00:57:04;;;;;;;7.8;4.6;;;;;;;;;;;;;
2022/01/29 00:59:31;;;;;;;6.5;4;;;;;;;;;;;;;
2022/01/29 01:01:54;;;;;;;8.3;4.4;;;;;;;;;;;;;
2022/01/29 01:04:23;;;;;;;6;4;;;;;;;;;;;;;
2022/01/29 01:06:48;;;;;;;8.6;5;;;;;;;;;;;;;
2022/01/29 01:09:13;;;;;;;7.8;4.6;;;;;;;;;;;;;
2022/01/29 01:11:39;;;;;;;6.5;4.1;;;;;;;;;;;;;
2022/01/29 01:14:04;;;;;;;6.3;4;;;;;;;;;;;;;
2022/01/29 01:16:30;;;;;;;7.1;4.3;;;;;;;;;;;;;
2022/01/29 01:18:56;;;;;;;6.8;4.3;;;;;;;;;;;;;
2022/01/29 01:21:21;;;;;;;6.6;3.9;;;;;;;;;;;;;
2022/01/29 01:23:47;;;;;;;6;3.6;;;;;;;;;;;;;
2022/01/29 01:26:12;;;;;;;7;4;;;;;;;;;;;;;
2022/01/29 01:28:37;;;;;;;5;3.2;;;;;;;;;;;;;
2022/01/29 01:31:04;;;;;;;5.4;3.7;;;;;;;;;;;;;
2022/01/29 01:33:29;;;;;;;5.5;3.4;;;;;;;;;;;;;
2022/01/29 01:35:59;;;;;;;4.2;3.2;;;;;;;;;;;;;
2022/01/29 01:38:23;;;;;;;4.1;3;;;;;;;;;;;;;
2022/01/29 01:41:14;;;;;;;4.5;3.5;;;;;;;;;;;;;
2022/01/29 01:43:46;;;;;;;6;3.6;;;;;;;;;;;;;
2022/01/29 01:46:18;;;;;;;4.2;3.4;;;;;;;;;;;;;
2022/01/29 01:48:45;;;;;;;4.8;3.3;;;;;;;;;;;;;
2022/01/29 01:51:11;;;;;;;3.7;2.7;;;;;;;;;;;;;
2022/01/29 01:53:57;;;;;;;4.5;2.7;;;;;;;;;;;;;
2022/01/29 01:56:22;;;;;;;10;5.6;;;;;;;;;;;;;
2022/01/29 01:58:48;;;;;;;12.5;6.2;;;;;;;;;;;;;
2022/01/29 02:01:42;;;;;;;14.5;7.5;;;;;;;;;;;;;
2022/01/29 02:04:15;;;;;;;13.9;7.8;;;;;;;;;;;;;
2022/01/29 02:06:48;;;;;;;11.7;6.5;;;;;;;;;;;;;
2022/01/29 02:09:15;;;;;;;10.9;6.4;;;;;;;;;;;;;
2022/01/29 02:11:41;;;;;;;10.7;6.4;;;;;;;;;;;;;
2022/01/29 02:14:06;;;;;;;10.5;5.9;;;;;;;;;;;;;
2022/01/29 02:16:32;;;;;;;5.6;3.6;;;;;;;;;;;;;
2022/01/29 02:18:58;;;;;;;7.8;4.6;;;;;;;;;;;;;
2022/01/29 02:21:23;;;;;;;5.9;3.7;;;;;;;;;;;;;
2022/01/29 02:23:50;;;;;;;5.9;3.4;;;;;;;;;;;;;
2022/01/29 02:26:15;;;;;;;4.4;3.2;;;;;;;;;;;;;
2022/01/29 02:28:40;;;;;;;4.1;2.8;;;;;;;;;;;;;
2022/01/29 02:31:05;;;;;;;4.1;2.5;;;;;;;;;;;;;
2022/01/29 02:33:32;;;;;;;5.9;3.7;;;;;;;;;;;;;
2022/01/29 02:35:58;;;;;;;6.2;4.4;;;;;;;;;;;;;
2022/01/29 02:38:24;;;;;;;5.9;3.9;;;;;;;;;;;;;
2022/01/29 02:40:50;;;;;;;4.3;3.2;;;;;;;;;;;;;
2022/01/29 02:43:15;;;;;;;5.9;3.5;;;;;;;;;;;;;
2022/01/29 02:45:41;;;;;;;5.6;3.7;;;;;;;;;;;;;
2022/01/29 02:48:05;;;;;;;5.4;3.5;;;;;;;;;;;;;
2022/01/29 02:50:30;;;;;;;5.1;3.2;;;;;;;;;;;;;
2022/01/29 02:52:57;;;;;;;5.4;3.1;;;;;;;;;;;;;
2022/01/29 02:55:24;;;;;;;4.7;3.6;;;;;;;;;;;;;
2022/01/29 02:57:48;;;;;;;4.9;3.2;;;;;;;;;;;;;
2022/01/29 03:00:13;;;;;;;7;3.6;;;;;;;;;;;;;
2022/01/29 03:02:40;;;;;;;5.4;3.7;;;;;;;;;;;;;
2022/01/29 03:05:05;;;;;;;5.2;3.3;;;;;;;;;;;;;
2022/01/29 03:07:30;;;;;;;4.7;3.7;;;;;;;;;;;;;
2022/01/29 03:09:55;;;;;;;4.7;3.5;;;;;;;;;;;;;
2022/01/29 03:12:22;;;;;;;5.4;3.4;;;;;;;;;;;;;
2022/01/29 03:14:47;;;;;;;4.4;2.9;;;;;;;;;;;;;
2022/01/29 03:17:15;;;;;;;4.9;3.5;;;;;;;;;;;;;
2022/01/29 03:19:40;;;;;;;4.6;3.1;;;;;;;;;;;;;
2022/01/29 03:22:05;;;;;;;5.2;3.2;;;;;;;;;;;;;
2022/01/29 03:24:30;;;;;;;4;2.4;;;;;;;;;;;;;
2022/01/29 03:26:55;;;;;;;3.5;2.7;;;;;;;;;;;;;
2022/01/29 03:29:20;;;;;;;4.9;2.7;;;;;;;;;;;;;
2022/01/29 03:31:46;;;;;;;4.4;2.7;;;;;;;;;;;;;
2022/01/29 03:34:12;;;;;;;4;2.6;;;;;;;;;;;;;
2022/01/29 03:36:37;;;;;;;4.9;2.7;;;;;;;;;;;;;
2022/01/29 03:39:02;;;;;;;3.8;2.7;;;;;;;;;;;;;
2022/01/29 03:41:29;;;;;;;4.4;2.4;;;;;;;;;;;;;
2022/01/29 03:43:55;;;;;;;3.3;2.4;;;;;;;;;;;;;
2022/01/29 03:46:19;;;;;;;4.7;2.4;;;;;;;;;;;;;
2022/01/29 03:48:44;;;;;;;3.9;2.5;;;;;;;;;;;;;
2022/01/29 03:51:11;;;;;;;3.7;2.6;;;;;;;;;;;;;
2022/01/29 03:53:36;;;;;;;4.9;2.8;;;;;;;;;;;;;
2022/01/29 03:56:01;;;;;;;5;3.2;;;;;;;;;;;;;
2022/01/29 03:58:27;;;;;;;5;3.2;;;;;;;;;;;;;
2022/01/29 04:02:32;;;;;;;5.5;3.3;;;;;;;1.59;75.9209;949.8597;;;;
2022/01/29 04:04:57;;;;;;;6.2;3.4;;;;;;;1.52;76.51172;949.8038;;;;
2022/01/29 04:07:24;;;;;;;3.7;3;;;;;;;1.6;76.41406;949.8314;;;;
2022/01/29 04:09:51;;;;;;;5.5;3.2;;;;;;;1.59;76.17969;949.8873;;;;
2022/01/29 04:12:15;;;;;;;5.3;3.8;;;;;;;1.62;76.59863;949.7586;;;;
2022/01/29 04:14:42;;;;;;;4.9;3.2;;;;;;;1.72;75.88965;949.6508;;;;
2022/01/29 04:17:10;;;;;;;6.6;3.7;;;;;;;1.7;75.73926;949.6156;;;;
2022/01/29 04:19:35;;;;;;;6.1;3.4;;;;;;;1.52;76.42383;949.7194;;;;
2022/01/29 04:22:01;;;;;;;4.9;3.4;;;;;;;1.48;77.2334;949.6484;;;;
2022/01/29 04:24:26;;;;;;;4.7;3.5;;;;;;;1.58;76.45801;949.7244;;;;
2022/01/29 04:26:53;;;;;;;7.5;3.9;;;;;;;1.5;76.95508;949.7012;;;;
2022/01/29 04:29:19;;;;;;;5.1;3.2;;;;;;;1.56;76.95605;949.6563;;;;
2022/01/29 04:31:57;;;;;;;4.4;3.2;;;;;;;1.6;77.10938;949.6189;;;;
2022/01/29 04:34:10;;;;;;;4.1;2.9;;;;;;;1.72;76.91797;949.6548;;;;
2022/01/29 04:36:37;;;;;;;4.7;2.8;;;;;;;1.66;76.55078;949.5045;;;;
2022/01/29 04:39:02;;;;;;;4.9;2.9;;;;;;;1.65;76.7041;949.5497;;;;
2022/01/29 04:41:28;;;;;;;3.8;2.4;;;;;;;1.7;76.9248;949.4703;;;;
2022/01/29 04:43:53;;;;;;;2.9;2.3;;;;;;;1.55;76.90918;949.4409;;;;
2022/01/29 04:46:20;;;;;;;3.7;2.9;;;;;;;1.5;77.03516;949.3116;;;;
2022/01/29 04:48:45;;;;;;;3.4;2.3;;;;;;;1.39;77.41602;949.4972;;;;
2022/01/29 04:51:11;;;;;;;4.1;2.3;;;;;;;1.48;77.01953;949.397;;;;
2022/01/29 04:53:36;;;;;;;6;3;;;;;;;1.44;77.63867;949.3845;;;;
2022/01/29 04:56:02;;;;;;;4.7;2.7;;;;;;;1.56;76.96875;949.2537;;;;
2022/01/29 04:58:27;;;;;;;4.2;2.1;;;;;;;1.58;76.35742;949.2989;;;;
2022/01/29 05:00:54;;;;;;;3.6;2.6;;;;;;;1.51;77.32813;949.4067;;;;
2022/01/29 05:03:19;;;;;;;5.2;3.3;;;;;;;1.54;77.99219;949.3803;;;;
2022/01/29 05:05:48;;;;;;;6.8;5;;;;;;;1.49;77.31348;949.4372;;;;
2022/01/29 05:08:14;;;;;;;5;3;;;;;;;1.56;77.14551;949.2356;;;;
2022/01/29 05:10:47;;;;;;;4.8;3.6;;;;;;;1.5;77.31348;949.2391;;;;
2022/01/29 05:13:15;;;;;;;4.3;3;;;;;;;1.48;76.96484;949.2608;;;;
2022/01/29 05:15:41;;;;;;;5;3.5;;;;;;;1.63;76.74512;949.2097;;;;
2022/01/29 05:27:53;;;;;;;3.6;2.5;;;;;;;1.63;76.12109;949.1149;;;;
2022/01/29 05:30:18;;;;;;;6.5;3.5;;;;;;;1.78;75.78711;949.1941;;;;
2022/01/29 05:32:43;;;;;;;8.1;5.2;;;;;;;1.73;76.04785;949.2237;;;;
2022/01/29 05:35:09;;;;;;;9.3;5;;;;;;;1.87;76.01563;949.2161;;;;
2022/01/29 05:37:37;;;;;;;7.4;4.4;;;;;;;1.98;75.5332;949.1917;;;;
2022/01/29 05:40:02;;;;;;;7.4;4.7;;;;;;;1.96;75.66309;949.1613;;;;
2022/01/29 05:42:30;;;;;;;7;4.1;;;;;;;1.97;75.7666;949.1055;;;;
2022/01/29 05:44:53;;;;;;;6.4;3.1;;;;;;;1.9;74.63477;949.1021;;;;
2022/01/29 05:47:20;;;;;;;7;3.8;;;;;;;2.09;74.20898;949.1426;;;;
2022/01/29 05:49:45;;;;;;;7.1;4.7;;;;;;;2.05;75.09863;949.1019;;;;
2022/01/29 05:52:10;;;;;;;8.2;5.4;;;;;;;2.12;75.17676;949.0765;;;;
2022/01/29 05:54:35;;;;;;;6.2;3.7;;;;;;;2.19;75.40234;949.1956;;;;
2022/01/29 05:57:02;;;;;;;5;3.3;;;;;;;2.16;75.18359;949.2634;;;;
2022/01/29 05:59:27;;;;;;;10.1;6.8;;;;;;;2.07;75.87402;949.2838;;;;
2022/01/29 06:01:55;;;;;;;13.6;8.6;;;;;;;1.93;76.12793;949.2003;;;;
2022/01/29 06:04:20;;;;;;;10.8;6.6;;;;;;;1.97;75.49805;949.0886;;;;
2022/01/29 06:06:46;;;;;;;6.9;4.7;;;;;;;1.66;76.96484;949.1372;;;;
2022/01/29 06:09:11;;;;;;;6.2;3.8;;;;;;;1.62;76.78809;949.0443;;;;
2022/01/29 06:11:37;;;;;;;6;3;;;;;;;1.55;75.65723;949.0569;;;;
2022/01/29 06:14:02;;;;;;;4.4;3.3;;;;;;;1.67;75.49902;949.0595;;;;
2022/01/29 06:16:30;;;;;;;6.9;4;;;;;;;1.85;74.43555;949.0033;;;;
2022/01/29 06:18:55;;;;;;;5.4;3.8;;;;;;;1.92;74.02246;948.9179;;;;
2022/01/29 06:21:22;;;;;;;3.3;2.7;;;;;;;1.93;73.33008;948.8242;;;;
2022/01/29 06:23:47;;;;;;;2.2;1.8;;;;;;;1.94;72.92871;948.7642;;;;
2022/01/29 06:26:12;;;;;;;3.6;2.2;;;;;;;2.02;73.33594;948.7897;;;;
2022/01/29 06:28:37;;;;;;;2.3;2.1;;;;;;;2.14;72.69434;948.8326;;;;
2022/01/29 06:31:03;;;;;;;3.9;2;;;;;;;2.13;72.64844;948.7371;;;;
2022/01/29 06:33:28;;;;;;;2.4;1.5;;;;;;;2.2;70.63379;948.8283;;;;
2022/01/29 06:35:56;;;;;;;3.9;2.7;;;;;;;2.26;69.52246;948.8013;;;;
2022/01/29 06:38:21;;;;;;;3.8;2;;;;;;;2.11;67.85352;948.7919;;;;
2022/01/29 06:40:50;;;;;;;2.2;1.1;;;;;;;2.33;67.14941;948.8688;;;;
2022/01/29 06:43:18;;;;;;;1.6;1.3;;;;;;;2.35;66.01074;948.7687;;;;
2022/01/29 06:45:44;;;;;;;1.3;1.2;;;;;;;2.14;66.0459;948.7244;;;;
2022/01/29 06:48:09;;;;;;;3.6;2.9;;;;;;;1.98;69.60156;948.689;;;;
2022/01/29 06:50:34;;;;;;;4.2;3.4;;;;;;;1.77;72.04004;948.6803;;;;
2022/01/29 06:53:00;;;;;;;6.7;3.7;;;;;;;1.64;73.62695;948.676;;;;
2022/01/29 06:55:25;;;;;;;5;3.7;;;;;;;1.64;73.86133;948.653;;;;
2022/01/29 06:57:52;;;;;;;5.2;3.2;;;;;;;1.93;72.48926;948.7344;;;;
2022/01/29 07:00:17;;;;;;;5.4;3.6;;;;;;;1.99;73.45508;948.678;;;;
2022/01/29 07:02:44;;;;;;;6.7;4.6;;;;;;;2.09;73.57129;948.7394;;;;
2022/01/29 07:05:09;;;;;;;7.3;4.5;;;;;;;2.13;73.87988;948.7395;;;;
2022/01/29 07:07:35;;;;;;;4.6;3.1;;;;;;;1.85;74.39063;948.8186;;;;
2022/01/29 07:10:00;;;;;;;6.5;3.8;;;;;;;2;73.75684;948.9012;;;;
2022/01/29 07:12:28;;;;;;;5;3.4;;;;;;;2.22;72.8877;948.8461;;;;
2022/01/29 07:14:52;;;;;;;7;4.4;;;;;;;2.1;71.21094;948.9496;;;;
2022/01/29 07:17:22;;;;;;;4.8;3.5;;;;;;;2.23;70.50586;948.8825;;;;
2022/01/29 07:19:47;;;;;;;6.5;3.2;;;;;;;2.41;71.52148;948.8875;;;;
2022/01/29 07:22:15;;;;;;;2;1.6;;;;;;;2.43;65.09375;948.945;;;;
2022/01/29 07:24:40;;;;;;;3;2;;;;;;;2.53;66.88867;948.8592;;;;
2022/01/29 07:27:06;;;;;;;6.7;3.7;;;;;;;2.26;69.7373;948.9037;;;;
2022/01/29 07:29:32;;;;;;;5.7;3.2;;;;;;;2.35;69.31543;949.0706;;;;
2022/01/29 07:32:00;;;;;;;4.4;3.3;;;;;;;2.53;69.88281;948.9105;;;;
2022/01/29 07:34:25;;;;;;;4.6;2.8;;;;;;;2.32;68.39258;948.9763;;;;
2022/01/29 07:36:52;;;;;;;6;2.7;;;;;;;2.53;66.10645;948.9168;;;;
2022/01/29 07:39:16;;;;;;;7.2;2.1;;;;;;;2.7;65.41504;948.7798;;;;
2022/01/29 07:41:42;;;;;;;5;2;;;;;;;2.82;65.02832;948.7999;;;;
2022/01/29 07:44:07;;;;;;;3.7;2;;;;;;;2.89;63.72852;948.8466;;;;
2022/01/29 07:46:34;;;;;;;4.9;2.3;;;;;;;2.95;63.61328;948.8239;;;;
2022/01/29 07:49:00;;;;;;;4.5;2.2;;;;;;;2.99;61.67871;948.9155;;;;
2022/01/29 07:51:25;;;;;;;9.1;3.3;;;;;;;3.04;62.30273;948.8792;;;;
2022/01/29 07:53:50;;;;;;;13.1;3.9;;;;;;;3.18;62.09766;948.7537;;;;
2022/01/29 07:56:15;;;;;;;8.5;3.8;;;;;;;3.13;62.02441;948.7227;;;;
2022/01/29 07:58:40;;;;;;;12.6;3.5;;;;;;;3.25;63.24219;948.761;;;;
2022/01/29 08:01:05;;;;;;;28.7;5.1;;;;;;;3.4;63.47852;948.7255;;;;
2022/01/29 08:03:33;;;;;;;21.8;4.8;;;;;;;3.58;63.02246;948.678;;;;
2022/01/29 08:05:57;;;;;;;16.8;3.4;;;;;;;3.68;61.27344;948.7722;;;;
2022/01/29 08:08:24;;;;;;;13.6;3.8;;;;;;;3.6;60.40918;948.8851;;;;
2022/01/29 08:10:49;;;;;;;12.6;3.6;;;;;;;3.74;61.77539;948.8708;;;;
2022/01/29 08:13:15;;;;;;;25.9;5;;;;;;;3.89;61.41504;948.8856;;;;
2022/01/29 08:15:40;;;;;;;7.4;2.8;;;;;;;3.68;59.71094;948.9574;;;;
2022/01/29 08:18:09;;;;;;;12;3;;;;;;;3.7;61.27734;948.9578;;;;
2022/01/29 08:20:34;;;;;;;7;3.5;;;;;;;3.79;59.89453;949.0804;;;;
2022/01/29 08:23:04;;;;;;;8.9;3.9;;;;;;;3.9;61.25977;949.0037;;;;
2022/01/29 08:25:27;;;;;;;7.2;3.7;;;;;;;4.01;60.4668;949.0927;;;;
2022/01/29 08:27:54;;;;;;;16.7;5.3;;;;;;;4.13;61.05664;948.9964;;;;
2022/01/29 08:30:20;;;;;;;25.5;6.4;;;;;;;4.07;60.00293;948.8697;;;;
2022/01/29 08:32:48;;;;;;;18.1;5.8;;;;;;;4.01;59.28613;948.942;;;;
2022/01/29 08:35:15;;;;;;;12.3;4.7;;;;;;;4.01;61.95117;948.7768;;;;
2022/01/29 08:37:40;;;;;;;22.4;5.7;;;;;;;4.22;58.67188;948.7636;;;;
2022/01/29 08:40:06;;;;;;;21.5;7.4;;;;;;;4.31;60.21582;948.748;;;;
2022/01/29 08:42:32;;;;;;;17.3;7.1;;;;;;;4.5;59.31836;948.8109;;;;
2022/01/29 08:44:58;;;;;;;28.2;12.5;;;;;;;4.58;57.65234;948.7573;;;;
2022/01/29 08:47:24;;;;;;;22.1;10.1;;;;;;;4.64;57.08594;948.6398;;;;
2022/01/29 08:49:49;;;;;;;23.1;8.1;;;;;;;4.51;57.2832;948.7839;;;;
2022/01/29 08:52:16;;;;;;;5.7;3;;;;;;;4.64;54.67773;948.5028;;;;
2022/01/29 08:54:41;;;;;;;15.1;3.9;;;;;;;4.45;54.16797;948.5288;;;;
2022/01/29 08:57:06;;;;;;;11.7;4.2;;;;;;;4.44;55.54102;948.3801;;;;
2022/01/29 08:59:31;;;;;;;8.3;4.8;;;;;;;4.74;54.4873;948.166;;;;
2022/01/29 09:01:57;;;;;;;9.5;5.5;;;;;;;4.96;54.96484;948.0452;;;;
2022/01/29 09:04:24;;;;;;;14.2;5.7;;;;;;;5.23;54.45898;948.1506;;;;
2022/01/29 09:06:49;;;;;;;8.1;4.1;;;;;;;5.11;50.84668;948.1725;;;;
2022/01/29 09:09:20;;;;;;;6.8;3;;;;;;;5.13;49.58691;948.1719;;;;
2022/01/29 09:11:40;;;;;;;2.5;1.5;;;;;;;5.53;45.54688;947.9517;;;;
2022/01/29 09:14:08;;;;;;;5;2.3;;;;;;;5.8;49.66504;948.0003;;;;
2022/01/29 09:16:33;;;;;;;3.2;1.9;;;;;;;6.07;47.32324;947.972;;;;
2022/01/29 09:19:02;;;;;;;9.7;3.2;;;;;;;6.24;46.24609;948.0722;;;;
2022/01/29 09:21:32;;;;;;;8;2.8;;;;;;;6.47;49.29102;948.0463;;;;
2022/01/29 09:23:57;;;;;;;7.7;2.6;;;;;;;6.55;48.8584;947.9487;;;;
2022/01/29 09:26:24;;;;;;;4.4;2.6;;;;;;;6.72;48.41309;947.9148;;;;
2022/01/29 09:28:49;;;;;;;10.1;3.1;;;;;;;6.83;48.92383;948.0492;;;;
2022/01/29 09:31:17;;;;;;;11.8;4.2;;;;;;;6.78;48.5;948.0375;;;;
2022/01/29 09:33:42;;;;;;;9.6;4.3;;;;;;;6.78;48.47754;948.0359;;;;
2022/01/29 09:36:08;;;;;;;12.3;4.7;;;;;;;6.6;48.0498;947.9359;;;;
2022/01/29 09:38:33;;;;;;;20.1;4;;;;;;;6.61;48.61621;948.0718;;;;
2022/01/29 09:41:01;;;;;;;4;2.1;;;;;;;6.77;48.75684;948.0338;;;;
2022/01/29 09:43:27;;;;;;;4.2;2.1;;;;;;;6.2;50.21973;948.1881;;;;
2022/01/29 09:45:54;;;;;;;6.9;2.4;;;;;;;6.61;50.90234;948.1494;;;;
2022/01/29 09:48:19;;;;;;;2.9;1.9;;;;;;;6.71;50.09863;948.1367;;;;
2022/01/29 09:50:46;;;;;;;4.7;2.4;;;;;;;6.7;50.69727;948.1833;;;;
2022/01/29 09:53:11;;;;;;;8.8;4.4;;;;;;;6.92;49.29688;948.2397;;;;
2022/01/29 09:55:43;;;;;;;6.7;2.8;;;;;;;7.02;47.94922;948.0276;;;;
2022/01/29 09:58:10;;;;;;;92.7;82.7;;;;;;;6.8;48.45605;948.3381;;;;
2022/01/29 10:00:34;;;;;;;18.5;12.1;;;;;;;6.77;49.14355;948.2255;;;;
2022/01/29 10:03:00;;;;;;;5.2;4;;;;;;;6.91;48.93359;948.2598;;;;
2022/01/29 10:05:25;;;;;;;7.1;3.8;;;;;;;7.06;48.49707;948.1668;;;;
2022/01/29 10:07:51;;;;;;;5.6;3.3;;;;;;;6.99;45.5791;948.2319;;;;
2022/01/29 10:10:17;;;;;;;10.5;3.5;;;;;;;6.84;46.34375;948.2523;;;;
2022/01/29 10:12:41;;;;;;;5.7;3.4;;;;;;;6.97;49.83496;948.2004;;;;
2022/01/29 10:15:23;;;;;;;10.2;3.9;;;;;;;7.06;50.8877;948.3419;;;;
2022/01/29 10:17:45;;;;;;;10.3;4.2;;;;;;;7.05;50.69141;948.2416;;;;
2022/01/29 10:20:10;;;;;;;6.2;3.2;;;;;;;6.82;51.2666;948.1486;;;;
2022/01/29 10:22:36;;;;;;;7.5;3;;;;;;;6.86;50.52441;948.1955;;;;
2022/01/29 10:25:01;;;;;;;11.6;3.4;;;;;;;6.79;50.09668;948.1939;;;;
2022/01/29 10:27:27;;;;;;;5.5;2.5;;;;;;;6.43;52.57617;948.1401;;;;
2022/01/29 10:29:53;;;;;;;4.7;2.5;;;;;;;6.42;49.14844;948.2086;;;;
2022/01/29 10:32:18;;;;;;;4.8;2.8;;;;;;;6.26;48.75586;948.136;;;;
2022/01/29 10:34:44;;;;;;;5.8;2.8;;;;;;;6.2;49.84668;948.1533;;;;
2022/01/29 10:37:09;;;;;;;4.1;2.7;;;;;;;6.44;50.66602;948.2686;;;;
2022/01/29 10:39:35;;;;;;;6.6;3.5;;;;;;;6.47;48.89355;948.2367;;;;
2022/01/29 10:42:02;;;;;;;6.7;3.4;;;;;;;6.24;51.38965;948.3141;;;;
2022/01/29 10:44:33;;;;;;;8.6;3.5;;;;;;;6.25;50.94922;948.1858;;;;
2022/01/29 10:46:52;;;;;;;6.5;2.9;;;;;;;6.36;49.64941;948.2447;;;;
2022/01/29 10:49:20;;;;;;;5;3;;;;;;;6.01;48.19629;948.1858;;;;
2022/01/29 10:51:44;;;;;;;6.4;3.3;;;;;;;6.22;49.64551;948.1186;;;;
2022/01/29 10:54:09;;;;;;;18.2;8.2;;;;;;;6.19;49.29297;948.1908;;;;
2022/01/29 10:56:35;;;;;;;16.1;5.8;;;;;;;6.45;50.44141;948.0708;;;;
2022/01/29 10:59:01;;;;;;;9.2;4.3;;;;;;;6.37;49.60547;948.0259;;;;
2022/01/29 11:01:27;;;;;;;19.3;6.1;;;;;;;6.35;51.28809;948.0298;;;;
2022/01/29 11:03:55;;;;;;;16;5.6;;;;;;;6.27;51.44922;947.8653;;;;
2022/01/29 11:06:20;;;;;;;11.5;4.9;;;;;;;5.98;49.25684;948.1152;;;;
2022/01/29 11:08:42;;;;;;;7.9;4.1;;;;;;;6.27;49.50391;948.0312;;;;
2022/01/29 11:11:09;;;;;;;8.2;4.4;;;;;;;6.47;49.12012;947.9559;;;;
2022/01/29 11:13:34;;;;;;;12.2;4.8;;;;;;;6.67;49.76563;947.8351;;;;
2022/01/29 11:15:59;;;;;;;17.2;6.5;;;;;;;6.49;50.78516;947.9165;;;;
2022/01/29 11:18:26;;;;;;;15.5;8.4;;;;;;;6.73;48.82227;947.7166;;;;
2022/01/29 11:20:52;;;;;;;19.2;8.8;;;;;;;6.7;49.49805;947.6172;;;;
2022/01/29 11:23:19;;;;;;;5.4;2.9;;;;;;;6.55;46.22266;947.6316;;;;
2022/01/29 11:25:43;;;;;;;15.3;4.5;;;;;;;6.62;46.8623;947.5886;;;;
2022/01/29 11:28:49;;;;;;;8.2;4;;;;;;;6.99;47.81055;947.3825;;;;
2022/01/29 11:30:37;;;;;;;13.2;5.7;;;;;;;6.99;49.54297;947.4395;;;;
2022/01/29 11:33:16;;;;;;;16.4;6.6;;;;;;;7.42;49.58105;947.3452;;;;
2022/01/29 11:35:37;;;;;;;8.8;4.6;;;;;;;7.64;47.58691;947.3903;;;;
2022/01/29 11:38:02;;;;;;;7.2;4.1;;;;;;;7.55;48.08789;947.2443;;;;
2022/01/29 11:40:28;;;;;;;11.2;4.6;;;;;;;7.49;48.9541;947.2675;;;;
2022/01/29 11:42:53;;;;;;;20.1;9.8;;;;;;;7.38;48.19238;947.2125;;;;
2022/01/29 11:45:27;;;;;;;13.8;6.8;;;;;;;7.52;48.23145;947.1163;;;;
2022/01/29 11:47:50;;;;;;;10.7;5.4;;;;;;;7.72;49.08301;947.0192;;;;
2022/01/29 11:50:18;;;;;;;10.7;5.8;;;;;;;7.33;47.89355;947.0692;;;;
2022/01/29 11:52:43;;;;;;;9.1;4.6;;;;;;;7.46;47.61328;946.796;;;;
2022/01/29 11:56:51;;;;;;;9;4.8;;;;;;;7.72;47.62988;946.6772;;;;
2022/01/29 11:58:32;;;;;;;9.3;3.8;;;;;;;7.8;49.5459;946.688;;;;
2022/01/29 12:00:20;;;;;;;13.5;7.2;;;;;;;7.8;47.80957;946.7514;;;;
2022/01/29 12:02:46;;;;;;;7.8;4.5;;;;;;;8;47.77539;946.6814;;;;
2022/01/29 12:05:11;;;;;;;1.9;1.7;;;;;;;7.95;44.2627;946.5433;;;;
2022/01/29 12:07:40;;;;;;;6.9;2.6;;;;;;;8.14;44.82715;946.4791;;;;
2022/01/29 12:10:16;;;;;;;12.4;6.6;;;;;;;8.05;44.26074;946.4207;;;;
2022/01/29 12:12:44;;;;;;;18.9;5.6;;;;;;;8.43;44.02734;946.4279;;;;
2022/01/29 12:15:14;;;;;;;22.2;5.1;;;;;;;8.56;44.38281;946.4961;;;;
2022/01/29 12:17:40;;;;;;;7.6;3.5;;;;;;;8.81;43.99902;946.374;;;;
2022/01/29 12:20:10;;;;;;;15.3;3.9;;;;;;;9.35;43.39258;946.3427;;;;
2022/01/29 12:22:36;;;;;;;18.7;5.8;;;;;;;10.34;42.5459;946.3103;;;;
2022/01/29 12:25:01;;;;;;;16.1;6;;;;;;;11.67;37.51367;946.1881;;;;
2022/01/29 12:27:30;;;;;;;16.5;5.4;;;;;;;12.44;36.73145;946.0751;;;;
2022/01/29 12:29:55;;;;;;;16.1;5.5;;;;;;;13.14;36.16992;946.0031;;;;
2022/01/29 12:32:27;;;;;;;7.6;3.7;;;;;;;14.71;31.27539;946.0987;;;;
2022/01/29 12:34:53;;;;;;;7.8;2.9;;;;;;;14.32;32.04102;946.0045;;;;
2022/01/29 12:37:19;;;;;;;13.4;5.3;;;;;;;15.98;29.34277;945.9495;;;;
2022/01/29 12:39:45;;;;;;;19.4;4.2;;;;;;;18.48;24.42871;945.85;;;;
2022/01/29 12:42:26;;;;;;;9.1;3;;;;;;;21.45;20.40332;945.8219;;;;
2022/01/29 12:44:38;;;;;;;1.5;1.2;;;;;;;19.3;19.45313;945.687;;;;
2022/01/29 12:47:03;;;;;;;3.5;1.4;;;;;;;19.04;15.54199;945.748;;;;
2022/01/29 12:49:32;;;;;;;0.3;0.3;;;;;;;18.75;16.60156;945.7408;;;;
2022/01/29 12:51:57;;;;;;;0.2;0.2;;;;;;;19.12;14.35742;945.7623;;;;
2022/01/29 12:54:23;;;;;;;4.6;0.3;;;;;;;19.74;14.5752;945.6628;;;;
2022/01/29 12:56:48;;;;;;;2.3;0.4;;;;;;;20.43;15.25195;945.5833;;;;
2022/01/29 12:59:15;;;;;;;0.3;0.2;;;;;;;19.96;13.9873;945.5006;;;;
2022/01/29 13:01:40;;;;;;;0.2;0.2;;;;;;;19.82;14.78809;945.5502;;;;
2022/01/29 13:04:05;;;;;;;0.7;0.2;;;;;;;19.61;12.29785;945.4938;;;;
2022/01/29 13:06:31;;;;;;;2.4;0.3;;;;;;;19.32;15.10938;945.4882;;;;
2022/01/29 13:08:56;;;;;;;0.7;0.2;;;;;;;20.26;13.90332;945.4813;;;;
2022/01/29 13:11:24;;;;;;;1.4;0.4;;;;;;;19.64;13.49902;945.3111;;;;
2022/01/29 13:13:49;;;;;;;1.6;0.3;;;;;;;18.59;15.75879;945.4586;;;;
2022/01/29 13:16:16;;;;;;;1;0.9;;;;;;;18.56;18.44434;945.5291;;;;
2022/01/29 13:18:43;;;;;;;1.3;1.1;;;;;;;20.48;19.06152;945.3356;;;;
2022/01/29 13:21:08;;;;;;;3.7;1.2;;;;;;;21.42;17.7793;945.4576;;;;
2022/01/29 13:23:37;;;;;;;2.7;1.1;;;;;;;19.7;20.05371;945.1065;;;;
2022/01/29 13:26:01;;;;;;;1.9;1.1;;;;;;;20.39;17.41113;945.1223;;;;
2022/01/29 13:28:26;;;;;;;3.7;1.1;;;;;;;19.9;19.29297;945.0925;;;;
2022/01/29 13:30:53;;;;;;;4.2;1.3;;;;;;;20.01;19.54297;945.1692;;;;
2022/01/29 13:33:19;;;;;;;1.4;1.3;;;;;;;19.43;20.19336;945.2059;;;;
2022/01/29 13:35:44;;;;;;;1.8;1;;;;;;;21.45;18.19043;945.1113;;;;
2022/01/29 13:38:10;;;;;;;3;1.1;;;;;;;18.74;20.16211;945.1437;;;;
2022/01/29 13:40:42;;;;;;;2.2;1.3;;;;;;;18.8;19.73438;945.0309;;;;
2022/01/29 13:43:07;;;;;;;2;0.9;;;;;;;21.47;18.32031;944.8926;;;;
2022/01/29 13:45:34;;;;;;;1.1;1;;;;;;;20.08;18.76465;945.0511;;;;
2022/01/29 13:47:57;;;;;;;0.9;0.7;;;;;;;20.84;18.31738;944.8787;;;;
2022/01/29 13:50:22;;;;;;;1.1;0.9;;;;;;;20.14;19.15137;944.9111;;;;
2022/01/29 13:52:47;;;;;;;4.3;1.2;;;;;;;19.82;19.0332;945.1469;;;;
2022/01/29 13:55:14;;;;;;;1.5;1;;;;;;;19.72;19.29785;945.0181;;;;
2022/01/29 13:57:37;;;;;;;1.7;1.1;;;;;;;20.29;18.45801;945.1498;;;;
2022/01/29 14:00:04;;;;;;;1;0.9;;;;;;;20.24;18.10547;944.8013;;;;
2022/01/29 14:02:27;;;;;;;1.6;1.2;;;;;;;20.51;18.99316;944.8472;;;;
2022/01/29 14:04:54;;;;;;;1.1;0.9;;;;;;;19.49;18.75098;944.8706;;;;
2022/01/29 14:07:22;;;;;;;4.6;1.1;;;;;;;18.92;20.12305;944.2971;;;;
2022/01/29 14:09:46;;;;;;;1;0.7;;;;;;;18.61;20.08594;944.6371;;;;
2022/01/29 14:12:08;;;;;;;1.4;1;;;;;;;16.64;21.7334;944.7394;;;;
2022/01/29 14:14:36;;;;;;;3.8;1;;;;;;;18.78;20.57129;944.7656;;;;
2022/01/29 14:17:01;;;;;;;1.5;1.1;;;;;;;19.97;18.40918;944.7058;;;;
2022/01/29 14:19:30;;;;;;;3.2;1.1;;;;;;;20.53;18.24609;944.7522;;;;
2022/01/29 14:21:54;;;;;;;1.2;0.8;;;;;;;18.85;19.34082;944.6764;;;;
2022/01/29 14:24:19;;;;;;;1.9;1.1;;;;;;;19.9;18.62793;944.7392;;;;
2022/01/29 14:26:44;;;;;;;1.2;1;;;;;;;18.2;19.1377;944.6111;;;;
2022/01/29 14:29:12;;;;;;;1.5;0.7;;;;;;;19.41;17.69922;944.4465;;;;
2022/01/29 14:31:37;;;;;;;1.3;0.6;;;;;;;18.44;17.4043;944.7043;;;;
2022/01/29 14:34:05;;;;;;;1.1;0.6;;;;;;;19.89;16.9834;944.7346;;;;
2022/01/29 14:36:30;;;;;;;1.9;0.7;;;;;;;18.2;17.87109;944.478;;;;
2022/01/29 14:38:59;;;;;;;0.6;0.6;;;;;;;17.6;19.03027;944.598;;;;
2022/01/29 14:41:24;;;;;;;2.3;0.9;;;;;;;16.72;20.12695;944.5963;;;;
2022/01/29 14:43:49;;;;;;;1.2;0.5;;;;;;;16.49;19.58398;944.5781;;;;
2022/01/29 14:46:14;;;;;;;1.5;0.7;;;;;;;17.41;19.59082;944.4808;;;;
2022/01/29 14:48:44;;;;;;;5.5;3;;;;;;;17.46;20.02148;944.5942;;;;
2022/01/29 14:51:08;;;;;;;6.5;3;;;;;;;17.95;18.91797;944.5349;;;;
2022/01/29 14:53:34;;;;;;;3.9;2;;;;;;;17.51;19.93164;944.5206;;;;
2022/01/29 14:55:59;;;;;;;2.6;1.1;;;;;;;17.94;19.80078;944.4705;;;;
2022/01/29 14:58:24;;;;;;;1.6;0.9;;;;;;;18.05;19.85156;944.6221;;;;
2022/01/29 15:00:50;;;;;;;1.7;1;;;;;;;15.91;21.84668;944.6306;;;;
2022/01/29 15:03:17;;;;;;;3.6;0.9;;;;;;;15.81;22.60449;944.7468;;;;
2022/01/29 15:05:42;;;;;;;1.3;1.2;;;;;;;15.71;21.72168;944.5734;;;;
2022/01/29 15:08:09;;;;;;;1.8;0.8;;;;;;;16.14;21.44238;944.5566;;;;
2022/01/29 15:10:35;;;;;;;4.5;2.6;;;;;;;17.3;20.86133;944.628;;;;
2022/01/29 15:12:58;;;;;;;1.3;0.8;;;;;;;15.53;21.78223;944.5615;;;;
2022/01/29 15:15:28;;;;;;;5.4;3.3;;;;;;;12.8;24.91699;944.61;;;;
2022/01/29 15:17:56;;;;;;;3.1;1.8;;;;;;;11.94;26.25391;944.7097;;;;
2022/01/29 15:20:21;;;;;;;5.5;3.1;;;;;;;11.17;28.24219;944.6393;;;;
2022/01/29 15:22:50;;;;;;;10.7;3.8;;;;;;;10.48;29.95605;944.6902;;;;
2022/01/29 15:25:15;;;;;;;7.7;4;;;;;;;10.68;29.58105;944.6035;;;;
2022/01/29 15:27:42;;;;;;;3.8;1.7;;;;;;;10.44;28.57227;944.691;;;;
2022/01/29 15:30:07;;;;;;;2.3;1.5;;;;;;;10.35;28.83984;944.7972;;;;
2022/01/29 15:32:36;;;;;;;2.9;1.4;;;;;;;9.72;31.29297;944.7997;;;;
2022/01/29 15:35:01;;;;;;;3.4;2.2;;;;;;;8.98;30.6709;944.7925;;;;
2022/01/29 15:37:28;;;;;;;3.5;2.2;;;;;;;9.17;30.06934;944.7555;;;;
2022/01/29 15:39:53;;;;;;;1.5;1.1;;;;;;;9.27;29.04102;944.7067;;;;
2022/01/29 15:42:18;;;;;;;4.5;2.7;;;;;;;9.15;30.67188;944.6169;;;;
2022/01/29 15:44:43;;;;;;;5.1;2.4;;;;;;;8.97;31.05664;944.7611;;;;
2022/01/29 15:47:09;;;;;;;4.2;2.7;;;;;;;8.77;32.17871;944.7533;;;;
2022/01/29 15:49:34;;;;;;;8.2;2.4;;;;;;;8.62;32.45215;944.7675;;;;
2022/01/29 15:52:02;;;;;;;5.1;2;;;;;;;8.5;33.16992;944.7758;;;;